sensor_id;sensor_type;location;lat;lon;timestamp;P1;durP1;ratioP1;P2;durP2;ratioP2
4873;SDS011;2451;49.970;9.068;2023-03-31T00:00:31;5.18;;;1.73;;
4873;SDS011;2451;49.970;9.068;2023-03-31T00:02:57;6.10;;;1.65;;
4873;SDS011;2451;49.970;9.068;2023-03-31T00:05:25;7.95;;;2.20;;
4873;SDS011;2451;49.970;9.068;2023-03-31T00:07:55;6.15;;;1.55;;
4873;SDS011;2451;49.970;9.068;2023-03-31T00:10:28;6.15;;;1.73;;
4873;SDS011;2451;49.970;9.068;2023-03-31T00:12:57;7.57;;;1.50;;
4873;SDS011;2451;49.970;9.068;2023-03-31T00:15:23;6.90;;;1.80;;
4873;SDS011;2451;49.970;9.068;2023-03-31T00:17:48;4.63;;;1.67;;
4873;SDS011;2451;49.970;9.068;2023-03-31T00:20:14;5.97;;;1.50;;
4873;SDS011;2451;49.970;9.068;2023-03-31T00:22:41;6.95;;;1.70;;
4873;SDS011;2451;49.970;9.068;2023-03-31T00:30:09;5.95;;;1.50;;
4873;SDS011;2451;49.970;9.068;2023-03-31T00:32:38;4.85;;;1.70;;
4873;SDS011;2451;49.970;9.068;2023-03-31T00:35:03;4.85;;;1.38;;
4873;SDS011;2451;49.970;9.068;2023-03-31T00:37:29;4.60;;;1.25;;
4873;SDS011;2451;49.970;9.068;2023-03-31T00:39:57;5.45;;;1.50;;
4873;SDS011;2451;49.970;9.068;2023-03-31T00:42:23;7.07;;;1.60;;
4873;SDS011;2451;49.970;9.068;2023-03-31T00:48:24;11.13;;;1.77;;
4873;SDS011;2451;49.970;9.068;2023-03-31T00:53:01;7.15;;;1.60;;
4873;SDS011;2451;49.970;9.068;2023-03-31T00:55:34;7.90;;;1.70;;
4873;SDS011;2451;49.970;9.068;2023-03-31T00:58:03;5.10;;;1.58;;
4873;SDS011;2451;49.970;9.068;2023-03-31T01:00:30;5.72;;;1.80;;
4873;SDS011;2451;49.970;9.068;2023-03-31T01:02:57;4.88;;;1.70;;
4873;SDS011;2451;49.970;9.068;2023-03-31T01:05:35;6.15;;;1.50;;
4873;SDS011;2451;49.970;9.068;2023-03-31T01:08:11;4.78;;;1.70;;
4873;SDS011;2451;49.970;9.068;2023-03-31T01:10:39;6.35;;;2.00;;
4873;SDS011;2451;49.970;9.068;2023-03-31T01:13:09;5.32;;;2.58;;
4873;SDS011;2451;49.970;9.068;2023-03-31T01:15:37;6.07;;;2.08;;
4873;SDS011;2451;49.970;9.068;2023-03-31T01:18:03;7.47;;;2.10;;
4873;SDS011;2451;49.970;9.068;2023-03-31T01:31:24;6.05;;;1.70;;
4873;SDS011;2451;49.970;9.068;2023-03-31T01:48:12;6.65;;;1.70;;
4873;SDS011;2451;49.970;9.068;2023-03-31T01:50:58;11.25;;;1.88;;
4873;SDS011;2451;49.970;9.068;2023-03-31T01:56:30;7.03;;;1.67;;
4873;SDS011;2451;49.970;9.068;2023-03-31T02:01:52;5.97;;;1.95;;
4873;SDS011;2451;49.970;9.068;2023-03-31T02:04:57;7.53;;;1.90;;
4873;SDS011;2451;49.970;9.068;2023-03-31T02:07:23;7.30;;;1.90;;
4873;SDS011;2451;49.970;9.068;2023-03-31T02:09:54;9.00;;;2.10;;
4873;SDS011;2451;49.970;9.068;2023-03-31T02:12:25;6.22;;;1.95;;
4873;SDS011;2451;49.970;9.068;2023-03-31T02:14:53;7.25;;;2.00;;
4873;SDS011;2451;49.970;9.068;2023-03-31T02:17:22;5.97;;;2.10;;
4873;SDS011;2451;49.970;9.068;2023-03-31T02:19:57;8.73;;;2.47;;
4873;SDS011;2451;49.970;9.068;2023-03-31T02:22:30;10.00;;;2.03;;
4873;SDS011;2451;49.970;9.068;2023-03-31T02:24:59;5.88;;;2.45;;
4873;SDS011;2451;49.970;9.068;2023-03-31T02:29:54;6.22;;;2.10;;
4873;SDS011;2451;49.970;9.068;2023-03-31T02:32:22;9.13;;;2.75;;
4873;SDS011;2451;49.970;9.068;2023-03-31T02:34:56;5.47;;;1.95;;
4873;SDS011;2451;49.970;9.068;2023-03-31T02:37:22;5.57;;;1.70;;
4873;SDS011;2451;49.970;9.068;2023-03-31T02:39:48;5.53;;;1.67;;
4873;SDS011;2451;49.970;9.068;2023-03-31T02:42:17;7.00;;;1.90;;
4873;SDS011;2451;49.970;9.068;2023-03-31T02:44:43;6.00;;;1.90;;
4873;SDS011;2451;49.970;9.068;2023-03-31T02:47:10;7.93;;;1.88;;
4873;SDS011;2451;49.970;9.068;2023-03-31T02:49:39;6.53;;;2.00;;
4873;SDS011;2451;49.970;9.068;2023-03-31T02:55:01;6.68;;;1.83;;
4873;SDS011;2451;49.970;9.068;2023-03-31T03:03:50;8.63;;;2.03;;
4873;SDS011;2451;49.970;9.068;2023-03-31T03:06:44;8.23;;;2.10;;
4873;SDS011;2451;49.970;9.068;2023-03-31T03:09:33;9.38;;;1.98;;
4873;SDS011;2451;49.970;9.068;2023-03-31T03:12:15;6.75;;;1.55;;
4873;SDS011;2451;49.970;9.068;2023-03-31T03:14:56;6.65;;;1.90;;
4873;SDS011;2451;49.970;9.068;2023-03-31T03:17:24;7.20;;;2.00;;
4873;SDS011;2451;49.970;9.068;2023-03-31T03:19:58;11.77;;;2.42;;
4873;SDS011;2451;49.970;9.068;2023-03-31T03:22:25;13.95;;;2.20;;
4873;SDS011;2451;49.970;9.068;2023-03-31T03:24:51;6.63;;;1.95;;
4873;SDS011;2451;49.970;9.068;2023-03-31T03:27:18;10.10;;;2.40;;
4873;SDS011;2451;49.970;9.068;2023-03-31T03:29:46;7.93;;;2.00;;
4873;SDS011;2451;49.970;9.068;2023-03-31T03:32:12;6.13;;;2.05;;
4873;SDS011;2451;49.970;9.068;2023-03-31T03:34:38;8.60;;;2.10;;
4873;SDS011;2451;49.970;9.068;2023-03-31T03:37:03;8.68;;;2.30;;
4873;SDS011;2451;49.970;9.068;2023-03-31T03:39:31;8.48;;;2.08;;
4873;SDS011;2451;49.970;9.068;2023-03-31T03:41:56;11.57;;;2.42;;
4873;SDS011;2451;49.970;9.068;2023-03-31T03:44:22;9.80;;;2.25;;
4873;SDS011;2451;49.970;9.068;2023-03-31T03:46:47;10.82;;;2.58;;
4873;SDS011;2451;49.970;9.068;2023-03-31T03:49:13;13.02;;;2.35;;
4873;SDS011;2451;49.970;9.068;2023-03-31T03:51:38;9.55;;;2.10;;
4873;SDS011;2451;49.970;9.068;2023-03-31T03:54:04;9.48;;;2.20;;
4873;SDS011;2451;49.970;9.068;2023-03-31T03:56:30;8.73;;;1.80;;
4873;SDS011;2451;49.970;9.068;2023-03-31T03:58:56;8.88;;;2.20;;
4873;SDS011;2451;49.970;9.068;2023-03-31T04:01:21;10.27;;;1.90;;
4873;SDS011;2451;49.970;9.068;2023-03-31T04:03:47;10.77;;;3.08;;
4873;SDS011;2451;49.970;9.068;2023-03-31T04:06:13;10.60;;;2.35;;
4873;SDS011;2451;49.970;9.068;2023-03-31T04:08:39;8.43;;;2.33;;
4873;SDS011;2451;49.970;9.068;2023-03-31T04:11:10;9.90;;;2.60;;
4873;SDS011;2451;49.970;9.068;2023-03-31T04:13:38;9.43;;;2.50;;
4873;SDS011;2451;49.970;9.068;2023-03-31T04:16:03;10.95;;;2.63;;
4873;SDS011;2451;49.970;9.068;2023-03-31T04:18:29;10.80;;;2.67;;
4873;SDS011;2451;49.970;9.068;2023-03-31T04:20:55;7.72;;;2.53;;
4873;SDS011;2451;49.970;9.068;2023-03-31T04:23:33;8.77;;;2.40;;
4873;SDS011;2451;49.970;9.068;2023-03-31T04:26:10;11.15;;;2.50;;
4873;SDS011;2451;49.970;9.068;2023-03-31T04:28:37;9.73;;;2.38;;
4873;SDS011;2451;49.970;9.068;2023-03-31T04:31:07;7.95;;;2.10;;
4873;SDS011;2451;49.970;9.068;2023-03-31T04:33:34;10.95;;;2.15;;
4873;SDS011;2451;49.970;9.068;2023-03-31T04:36:04;6.32;;;2.22;;
4873;SDS011;2451;49.970;9.068;2023-03-31T04:38:43;15.77;;;2.67;;
4873;SDS011;2451;49.970;9.068;2023-03-31T04:41:15;12.38;;;2.40;;
4873;SDS011;2451;49.970;9.068;2023-03-31T04:43:41;12.38;;;2.72;;
4873;SDS011;2451;49.970;9.068;2023-03-31T04:46:07;12.00;;;2.60;;
4873;SDS011;2451;49.970;9.068;2023-03-31T04:48:33;10.55;;;2.78;;
4873;SDS011;2451;49.970;9.068;2023-03-31T04:50:59;10.82;;;2.47;;
4873;SDS011;2451;49.970;9.068;2023-03-31T04:53:25;9.00;;;2.25;;
4873;SDS011;2451;49.970;9.068;2023-03-31T04:55:51;14.15;;;2.10;;
4873;SDS011;2451;49.970;9.068;2023-03-31T04:58:16;8.65;;;2.42;;
4873;SDS011;2451;49.970;9.068;2023-03-31T05:00:42;11.07;;;2.58;;
4873;SDS011;2451;49.970;9.068;2023-03-31T05:03:08;8.75;;;2.58;;
4873;SDS011;2451;49.970;9.068;2023-03-31T05:05:34;8.50;;;2.78;;
4873;SDS011;2451;49.970;9.068;2023-03-31T05:08:00;11.13;;;2.67;;
4873;SDS011;2451;49.970;9.068;2023-03-31T05:10:26;9.88;;;3.20;;
4873;SDS011;2451;49.970;9.068;2023-03-31T05:12:51;9.63;;;3.10;;
4873;SDS011;2451;49.970;9.068;2023-03-31T05:15:17;12.85;;;3.65;;
4873;SDS011;2451;49.970;9.068;2023-03-31T05:17:43;11.70;;;3.42;;
4873;SDS011;2451;49.970;9.068;2023-03-31T05:20:09;11.05;;;3.45;;
4873;SDS011;2451;49.970;9.068;2023-03-31T05:22:36;10.40;;;3.15;;
4873;SDS011;2451;49.970;9.068;2023-03-31T05:25:03;12.85;;;3.10;;
4873;SDS011;2451;49.970;9.068;2023-03-31T05:27:30;15.00;;;3.47;;
4873;SDS011;2451;49.970;9.068;2023-03-31T05:29:56;12.05;;;3.33;;
4873;SDS011;2451;49.970;9.068;2023-03-31T05:32:22;12.73;;;3.58;;
4873;SDS011;2451;49.970;9.068;2023-03-31T05:34:48;12.82;;;4.20;;
4873;SDS011;2451;49.970;9.068;2023-03-31T05:37:16;9.32;;;3.15;;
4873;SDS011;2451;49.970;9.068;2023-03-31T05:39:42;14.45;;;3.70;;
4873;SDS011;2451;49.970;9.068;2023-03-31T05:42:08;16.05;;;3.58;;
4873;SDS011;2451;49.970;9.068;2023-03-31T05:44:33;7.88;;;3.40;;
4873;SDS011;2451;49.970;9.068;2023-03-31T05:46:59;10.23;;;3.72;;
4873;SDS011;2451;49.970;9.068;2023-03-31T05:49:25;11.18;;;3.55;;
4873;SDS011;2451;49.970;9.068;2023-03-31T05:51:50;15.15;;;3.45;;
4873;SDS011;2451;49.970;9.068;2023-03-31T05:54:17;11.68;;;3.72;;
4873;SDS011;2451;49.970;9.068;2023-03-31T05:56:43;12.85;;;4.45;;
4873;SDS011;2451;49.970;9.068;2023-03-31T05:59:08;12.25;;;3.85;;
4873;SDS011;2451;49.970;9.068;2023-03-31T06:01:34;12.38;;;4.53;;
4873;SDS011;2451;49.970;9.068;2023-03-31T06:03:59;12.88;;;4.85;;
4873;SDS011;2451;49.970;9.068;2023-03-31T06:06:25;11.85;;;5.63;;
4873;SDS011;2451;49.970;9.068;2023-03-31T06:08:52;12.35;;;4.70;;
4873;SDS011;2451;49.970;9.068;2023-03-31T06:11:18;18.52;;;6.70;;
4873;SDS011;2451;49.970;9.068;2023-03-31T06:13:45;16.23;;;4.95;;
4873;SDS011;2451;49.970;9.068;2023-03-31T06:16:12;16.25;;;5.72;;
4873;SDS011;2451;49.970;9.068;2023-03-31T06:18:39;13.90;;;4.00;;
4873;SDS011;2451;49.970;9.068;2023-03-31T06:21:06;12.85;;;3.50;;
4873;SDS011;2451;49.970;9.068;2023-03-31T06:23:32;13.10;;;4.10;;
4873;SDS011;2451;49.970;9.068;2023-03-31T06:26:05;14.25;;;3.88;;
4873;SDS011;2451;49.970;9.068;2023-03-31T06:28:33;15.10;;;5.28;;
4873;SDS011;2451;49.970;9.068;2023-03-31T06:31:04;17.25;;;5.13;;
4873;SDS011;2451;49.970;9.068;2023-03-31T06:33:31;19.02;;;5.40;;
4873;SDS011;2451;49.970;9.068;2023-03-31T06:35:57;18.33;;;4.95;;
4873;SDS011;2451;49.970;9.068;2023-03-31T06:38:25;22.08;;;7.20;;
4873;SDS011;2451;49.970;9.068;2023-03-31T06:40:51;23.63;;;7.00;;
4873;SDS011;2451;49.970;9.068;2023-03-31T06:43:17;21.98;;;6.50;;
4873;SDS011;2451;49.970;9.068;2023-03-31T06:45:44;15.60;;;5.22;;
4873;SDS011;2451;49.970;9.068;2023-03-31T06:48:11;16.15;;;4.35;;
4873;SDS011;2451;49.970;9.068;2023-03-31T06:50:39;10.52;;;3.88;;
4873;SDS011;2451;49.970;9.068;2023-03-31T06:53:06;15.40;;;7.43;;
4873;SDS011;2451;49.970;9.068;2023-03-31T06:55:32;16.75;;;7.47;;
4873;SDS011;2451;49.970;9.068;2023-03-31T06:57:58;13.18;;;6.22;;
4873;SDS011;2451;49.970;9.068;2023-03-31T07:00:24;13.98;;;4.10;;
4873;SDS011;2451;49.970;9.068;2023-03-31T07:02:51;13.85;;;3.70;;
4873;SDS011;2451;49.970;9.068;2023-03-31T07:05:17;8.70;;;4.00;;
4873;SDS011;2451;49.970;9.068;2023-03-31T07:07:43;10.60;;;3.53;;
4873;SDS011;2451;49.970;9.068;2023-03-31T07:10:09;11.23;;;3.83;;
4873;SDS011;2451;49.970;9.068;2023-03-31T07:12:35;12.23;;;4.38;;
4873;SDS011;2451;49.970;9.068;2023-03-31T07:15:00;10.88;;;4.88;;
4873;SDS011;2451;49.970;9.068;2023-03-31T07:17:26;11.70;;;4.80;;
4873;SDS011;2451;49.970;9.068;2023-03-31T07:19:51;13.13;;;4.57;;
4873;SDS011;2451;49.970;9.068;2023-03-31T07:22:17;11.40;;;4.72;;
4873;SDS011;2451;49.970;9.068;2023-03-31T07:24:42;9.95;;;4.25;;
4873;SDS011;2451;49.970;9.068;2023-03-31T07:27:08;9.85;;;3.90;;
4873;SDS011;2451;49.970;9.068;2023-03-31T07:29:33;13.45;;;4.65;;
4873;SDS011;2451;49.970;9.068;2023-03-31T07:32:01;9.43;;;4.13;;
4873;SDS011;2451;49.970;9.068;2023-03-31T07:34:26;16.70;;;4.95;;
4873;SDS011;2451;49.970;9.068;2023-03-31T07:36:55;12.25;;;4.82;;
4873;SDS011;2451;49.970;9.068;2023-03-31T07:39:20;11.45;;;4.68;;
4873;SDS011;2451;49.970;9.068;2023-03-31T07:41:46;10.45;;;4.93;;
4873;SDS011;2451;49.970;9.068;2023-03-31T07:44:12;12.93;;;4.28;;
4873;SDS011;2451;49.970;9.068;2023-03-31T07:46:38;8.05;;;4.05;;
4873;SDS011;2451;49.970;9.068;2023-03-31T07:49:03;11.75;;;4.40;;
4873;SDS011;2451;49.970;9.068;2023-03-31T07:51:29;8.80;;;4.90;;
4873;SDS011;2451;49.970;9.068;2023-03-31T07:53:55;9.63;;;4.70;;
4873;SDS011;2451;49.970;9.068;2023-03-31T07:56:21;9.93;;;5.10;;
4873;SDS011;2451;49.970;9.068;2023-03-31T07:58:48;11.77;;;5.50;;
4873;SDS011;2451;49.970;9.068;2023-03-31T08:01:16;13.07;;;4.88;;
4873;SDS011;2451;49.970;9.068;2023-03-31T08:03:43;10.38;;;4.68;;
4873;SDS011;2451;49.970;9.068;2023-03-31T08:06:10;10.57;;;4.35;;
4873;SDS011;2451;49.970;9.068;2023-03-31T08:08:41;9.57;;;4.60;;
4873;SDS011;2451;49.970;9.068;2023-03-31T08:11:07;11.55;;;4.72;;
4873;SDS011;2451;49.970;9.068;2023-03-31T08:13:33;8.90;;;4.53;;
4873;SDS011;2451;49.970;9.068;2023-03-31T08:15:58;8.27;;;4.70;;
4873;SDS011;2451;49.970;9.068;2023-03-31T08:18:24;9.88;;;5.10;;
4873;SDS011;2451;49.970;9.068;2023-03-31T08:20:49;7.15;;;4.18;;
4873;SDS011;2451;49.970;9.068;2023-03-31T08:23:15;9.55;;;3.55;;
4873;SDS011;2451;49.970;9.068;2023-03-31T08:25:40;10.23;;;3.60;;
4873;SDS011;2451;49.970;9.068;2023-03-31T08:28:06;7.95;;;3.70;;
4873;SDS011;2451;49.970;9.068;2023-03-31T08:30:35;7.22;;;3.70;;
4873;SDS011;2451;49.970;9.068;2023-03-31T08:33:02;10.10;;;4.07;;
4873;SDS011;2451;49.970;9.068;2023-03-31T08:35:27;8.13;;;3.30;;
4873;SDS011;2451;49.970;9.068;2023-03-31T08:37:53;6.68;;;3.38;;
4873;SDS011;2451;49.970;9.068;2023-03-31T08:40:20;5.97;;;3.00;;
4873;SDS011;2451;49.970;9.068;2023-03-31T08:42:48;5.72;;;2.50;;
4873;SDS011;2451;49.970;9.068;2023-03-31T08:47:57;5.20;;;2.85;;
4873;SDS011;2451;49.970;9.068;2023-03-31T08:50:43;4.35;;;2.45;;
4873;SDS011;2451;49.970;9.068;2023-03-31T08:55:59;3.38;;;2.08;;
4873;SDS011;2451;49.970;9.068;2023-03-31T08:58:44;3.60;;;2.15;;
4873;SDS011;2451;49.970;9.068;2023-03-31T09:06:37;2.58;;;1.65;;
4873;SDS011;2451;49.970;9.068;2023-03-31T09:09:21;4.10;;;1.90;;
4873;SDS011;2451;49.970;9.068;2023-03-31T09:12:04;4.10;;;2.28;;
4873;SDS011;2451;49.970;9.068;2023-03-31T09:19:42;5.93;;;1.92;;
4873;SDS011;2451;49.970;9.068;2023-03-31T09:22:21;5.25;;;1.98;;
4873;SDS011;2451;49.970;9.068;2023-03-31T09:27:25;6.28;;;2.30;;
4873;SDS011;2451;49.970;9.068;2023-03-31T09:29:57;5.80;;;2.20;;
4873;SDS011;2451;49.970;9.068;2023-03-31T09:32:44;8.00;;;2.40;;
4873;SDS011;2451;49.970;9.068;2023-03-31T09:35:14;5.97;;;1.95;;
4873;SDS011;2451;49.970;9.068;2023-03-31T09:37:49;2.83;;;1.85;;
4873;SDS011;2451;49.970;9.068;2023-03-31T09:40:19;4.80;;;1.70;;
4873;SDS011;2451;49.970;9.068;2023-03-31T09:42:47;4.22;;;1.85;;
4873;SDS011;2451;49.970;9.068;2023-03-31T09:45:21;6.80;;;2.40;;
4873;SDS011;2451;49.970;9.068;2023-03-31T09:47:54;6.10;;;2.78;;
4873;SDS011;2451;49.970;9.068;2023-03-31T09:50:23;6.63;;;2.60;;
4873;SDS011;2451;49.970;9.068;2023-03-31T09:52:57;8.43;;;3.20;;
4873;SDS011;2451;49.970;9.068;2023-03-31T09:55:38;8.75;;;2.67;;
4873;SDS011;2451;49.970;9.068;2023-03-31T09:58:22;8.80;;;2.70;;
4873;SDS011;2451;49.970;9.068;2023-03-31T10:03:48;5.03;;;2.80;;
4873;SDS011;2451;49.970;9.068;2023-03-31T10:06:15;6.50;;;2.65;;
4873;SDS011;2451;49.970;9.068;2023-03-31T10:09:03;5.20;;;2.90;;
4873;SDS011;2451;49.970;9.068;2023-03-31T10:11:29;7.20;;;2.38;;
4873;SDS011;2451;49.970;9.068;2023-03-31T10:19:10;4.40;;;2.03;;
4873;SDS011;2451;49.970;9.068;2023-03-31T10:21:48;4.93;;;1.92;;
4873;SDS011;2451;49.970;9.068;2023-03-31T10:24:23;4.07;;;1.58;;
4873;SDS011;2451;49.970;9.068;2023-03-31T10:26:52;5.22;;;2.22;;
4873;SDS011;2451;49.970;9.068;2023-03-31T10:29:25;5.93;;;1.90;;
4873;SDS011;2451;49.970;9.068;2023-03-31T10:31:55;4.68;;;1.85;;
4873;SDS011;2451;49.970;9.068;2023-03-31T10:34:29;2.85;;;1.40;;
4873;SDS011;2451;49.970;9.068;2023-03-31T10:36:55;3.40;;;1.50;;
4873;SDS011;2451;49.970;9.068;2023-03-31T10:39:21;4.80;;;1.58;;
4873;SDS011;2451;49.970;9.068;2023-03-31T10:41:56;2.75;;;1.17;;
4873;SDS011;2451;49.970;9.068;2023-03-31T10:44:30;2.75;;;1.10;;
4873;SDS011;2451;49.970;9.068;2023-03-31T10:47:05;4.80;;;1.33;;
4873;SDS011;2451;49.970;9.068;2023-03-31T10:49:38;4.57;;;1.40;;
4873;SDS011;2451;49.970;9.068;2023-03-31T10:52:17;5.00;;;1.08;;
4873;SDS011;2451;49.970;9.068;2023-03-31T10:54:47;5.55;;;1.20;;
4873;SDS011;2451;49.970;9.068;2023-03-31T10:57:16;5.28;;;1.60;;
4873;SDS011;2451;49.970;9.068;2023-03-31T10:59:51;3.20;;;1.17;;
4873;SDS011;2451;49.970;9.068;2023-03-31T11:16:55;6.78;;;1.70;;
4873;SDS011;2451;49.970;9.068;2023-03-31T11:25:11;8.63;;;1.73;;
4873;SDS011;2451;49.970;9.068;2023-03-31T11:30:35;9.30;;;1.75;;
4873;SDS011;2451;49.970;9.068;2023-03-31T11:33:24;4.43;;;1.80;;
4873;SDS011;2451;49.970;9.068;2023-03-31T11:44:13;8.63;;;2.28;;
4873;SDS011;2451;49.970;9.068;2023-03-31T11:46:42;8.80;;;1.98;;
4873;SDS011;2451;49.970;9.068;2023-03-31T11:49:27;5.07;;;2.13;;
4873;SDS011;2451;49.970;9.068;2023-03-31T11:51:59;9.07;;;1.90;;
4873;SDS011;2451;49.970;9.068;2023-03-31T11:57:41;9.32;;;2.30;;
4873;SDS011;2451;49.970;9.068;2023-03-31T12:00:40;8.07;;;2.58;;
4873;SDS011;2451;49.970;9.068;2023-03-31T12:03:15;7.88;;;2.08;;
4873;SDS011;2451;49.970;9.068;2023-03-31T12:05:47;7.23;;;1.90;;
4873;SDS011;2451;49.970;9.068;2023-03-31T12:08:25;8.80;;;2.15;;
4873;SDS011;2451;49.970;9.068;2023-03-31T12:11:02;13.35;;;2.80;;
4873;SDS011;2451;49.970;9.068;2023-03-31T12:13:50;8.15;;;2.28;;
4873;SDS011;2451;49.970;9.068;2023-03-31T12:16:41;13.10;;;2.42;;
4873;SDS011;2451;49.970;9.068;2023-03-31T12:19:20;9.43;;;2.13;;
4873;SDS011;2451;49.970;9.068;2023-03-31T12:22:09;9.38;;;1.90;;
4873;SDS011;2451;49.970;9.068;2023-03-31T12:24:54;7.90;;;1.90;;
4873;SDS011;2451;49.970;9.068;2023-03-31T12:27:24;8.93;;;1.60;;
4873;SDS011;2451;49.970;9.068;2023-03-31T12:32:40;8.10;;;2.08;;
4873;SDS011;2451;49.970;9.068;2023-03-31T12:35:24;6.90;;;2.05;;
4873;SDS011;2451;49.970;9.068;2023-03-31T12:40:51;7.55;;;1.90;;
4873;SDS011;2451;49.970;9.068;2023-03-31T12:49:43;4.70;;;1.30;;
4873;SDS011;2451;49.970;9.068;2023-03-31T12:52:26;5.82;;;1.63;;
4873;SDS011;2451;49.970;9.068;2023-03-31T12:57:41;9.02;;;2.03;;
4873;SDS011;2451;49.970;9.068;2023-03-31T13:02:38;9.00;;;1.75;;
4873;SDS011;2451;49.970;9.068;2023-03-31T13:08:11;7.80;;;2.10;;
4873;SDS011;2451;49.970;9.068;2023-03-31T13:11:16;8.05;;;1.80;;
4873;SDS011;2451;49.970;9.068;2023-03-31T13:13:56;11.65;;;2.30;;
4873;SDS011;2451;49.970;9.068;2023-03-31T13:16:42;9.05;;;1.90;;
4873;SDS011;2451;49.970;9.068;2023-03-31T13:19:09;12.38;;;2.22;;
4873;SDS011;2451;49.970;9.068;2023-03-31T13:21:53;7.00;;;1.65;;
4873;SDS011;2451;49.970;9.068;2023-03-31T13:24:21;8.55;;;1.98;;
4873;SDS011;2451;49.970;9.068;2023-03-31T13:26:47;8.02;;;1.75;;
4873;SDS011;2451;49.970;9.068;2023-03-31T13:32:16;8.75;;;2.20;;
4873;SDS011;2451;49.970;9.068;2023-03-31T13:34:56;8.15;;;2.25;;
4873;SDS011;2451;49.970;9.068;2023-03-31T13:43:27;6.60;;;1.83;;
4873;SDS011;2451;49.970;9.068;2023-03-31T13:49:03;8.00;;;2.55;;
4873;SDS011;2451;49.970;9.068;2023-03-31T13:54:28;7.45;;;1.60;;
4873;SDS011;2451;49.970;9.068;2023-03-31T14:00:12;8.25;;;2.17;;
4873;SDS011;2451;49.970;9.068;2023-03-31T14:05:58;6.93;;;1.67;;
4873;SDS011;2451;49.970;9.068;2023-03-31T14:16:32;3.97;;;1.00;;
4873;SDS011;2451;49.970;9.068;2023-03-31T14:19:12;4.88;;;1.13;;
4873;SDS011;2451;49.970;9.068;2023-03-31T14:22:10;3.90;;;1.20;;
4873;SDS011;2451;49.970;9.068;2023-03-31T14:24:41;4.05;;;1.02;;
4873;SDS011;2451;49.970;9.068;2023-03-31T14:30:09;5.43;;;1.35;;
4873;SDS011;2451;49.970;9.068;2023-03-31T14:32:49;4.20;;;1.50;;
4873;SDS011;2451;49.970;9.068;2023-03-31T14:35:34;4.10;;;1.15;;
4873;SDS011;2451;49.970;9.068;2023-03-31T14:38:25;2.92;;;1.50;;
4873;SDS011;2451;49.970;9.068;2023-03-31T14:40:53;6.18;;;1.30;;
4873;SDS011;2451;49.970;9.068;2023-03-31T14:43:28;4.70;;;1.58;;
4873;SDS011;2451;49.970;9.068;2023-03-31T14:45:58;4.43;;;1.23;;
4873;SDS011;2451;49.970;9.068;2023-03-31T14:48:29;5.35;;;1.63;;
4873;SDS011;2451;49.970;9.068;2023-03-31T14:50:59;4.88;;;1.38;;
4873;SDS011;2451;49.970;9.068;2023-03-31T14:53:26;5.20;;;1.60;;
4873;SDS011;2451;49.970;9.068;2023-03-31T14:55:57;3.65;;;1.08;;
4873;SDS011;2451;49.970;9.068;2023-03-31T14:58:36;4.47;;;1.48;;
4873;SDS011;2451;49.970;9.068;2023-03-31T15:01:05;6.13;;;2.10;;
4873;SDS011;2451;49.970;9.068;2023-03-31T15:03:33;3.40;;;1.42;;
4873;SDS011;2451;49.970;9.068;2023-03-31T15:06:02;4.60;;;1.27;;
4873;SDS011;2451;49.970;9.068;2023-03-31T15:08:30;6.95;;;1.58;;
4873;SDS011;2451;49.970;9.068;2023-03-31T15:11:01;9.50;;;3.20;;
4873;SDS011;2451;49.970;9.068;2023-03-31T15:13:32;8.10;;;2.30;;
4873;SDS011;2451;49.970;9.068;2023-03-31T15:16:18;4.57;;;1.30;;
4873;SDS011;2451;49.970;9.068;2023-03-31T15:18:56;5.80;;;1.50;;
4873;SDS011;2451;49.970;9.068;2023-03-31T15:21:24;4.85;;;1.40;;
4873;SDS011;2451;49.970;9.068;2023-03-31T15:23:52;4.95;;;1.30;;
4873;SDS011;2451;49.970;9.068;2023-03-31T15:26:20;3.42;;;1.40;;
4873;SDS011;2451;49.970;9.068;2023-03-31T15:28:53;5.57;;;1.30;;
4873;SDS011;2451;49.970;9.068;2023-03-31T15:31:22;5.65;;;1.50;;
4873;SDS011;2451;49.970;9.068;2023-03-31T15:33:48;6.63;;;1.98;;
4873;SDS011;2451;49.970;9.068;2023-03-31T15:36:14;5.10;;;1.38;;
4873;SDS011;2451;49.970;9.068;2023-03-31T15:38:40;8.57;;;2.08;;
4873;SDS011;2451;49.970;9.068;2023-03-31T15:41:13;7.05;;;1.70;;
4873;SDS011;2451;49.970;9.068;2023-03-31T15:46:10;4.68;;;1.35;;
4873;SDS011;2451;49.970;9.068;2023-03-31T15:48:49;5.70;;;1.60;;
4873;SDS011;2451;49.970;9.068;2023-03-31T15:51:36;6.13;;;1.50;;
4873;SDS011;2451;49.970;9.068;2023-03-31T15:54:11;5.20;;;1.70;;
4873;SDS011;2451;49.970;9.068;2023-03-31T15:56:50;10.48;;;1.80;;
4873;SDS011;2451;49.970;9.068;2023-03-31T15:59:24;6.93;;;1.70;;
4873;SDS011;2451;49.970;9.068;2023-03-31T16:01:51;3.85;;;1.67;;
4873;SDS011;2451;49.970;9.068;2023-03-31T16:04:18;6.15;;;1.83;;
4873;SDS011;2451;49.970;9.068;2023-03-31T16:06:45;6.20;;;1.55;;
4873;SDS011;2451;49.970;9.068;2023-03-31T16:09:17;5.78;;;1.90;;
4873;SDS011;2451;49.970;9.068;2023-03-31T16:11:50;3.15;;;1.00;;
4873;SDS011;2451;49.970;9.068;2023-03-31T16:14:30;4.05;;;1.25;;
4873;SDS011;2451;49.970;9.068;2023-03-31T16:17:05;4.40;;;1.10;;
4873;SDS011;2451;49.970;9.068;2023-03-31T16:19:47;4.22;;;1.02;;
4873;SDS011;2451;49.970;9.068;2023-03-31T16:22:19;3.78;;;1.08;;
4873;SDS011;2451;49.970;9.068;2023-03-31T16:24:48;4.18;;;1.30;;
4873;SDS011;2451;49.970;9.068;2023-03-31T16:27:14;3.67;;;1.45;;
4873;SDS011;2451;49.970;9.068;2023-03-31T16:29:40;4.18;;;1.55;;
4873;SDS011;2451;49.970;9.068;2023-03-31T16:32:07;6.00;;;1.98;;
4873;SDS011;2451;49.970;9.068;2023-03-31T16:34:57;5.90;;;2.42;;
4873;SDS011;2451;49.970;9.068;2023-03-31T16:37:24;7.63;;;2.38;;
4873;SDS011;2451;49.970;9.068;2023-03-31T16:39:50;6.68;;;3.10;;
4873;SDS011;2451;49.970;9.068;2023-03-31T16:42:15;4.57;;;2.10;;
4873;SDS011;2451;49.970;9.068;2023-03-31T16:44:41;9.10;;;3.28;;
4873;SDS011;2451;49.970;9.068;2023-03-31T16:47:08;5.40;;;2.30;;
4873;SDS011;2451;49.970;9.068;2023-03-31T16:49:33;8.35;;;2.03;;
4873;SDS011;2451;49.970;9.068;2023-03-31T16:51:59;9.18;;;2.80;;
4873;SDS011;2451;49.970;9.068;2023-03-31T16:54:24;6.05;;;2.00;;
4873;SDS011;2451;49.970;9.068;2023-03-31T16:56:50;8.00;;;2.80;;
4873;SDS011;2451;49.970;9.068;2023-03-31T16:59:16;6.75;;;1.80;;
4873;SDS011;2451;49.970;9.068;2023-03-31T17:01:41;7.47;;;1.90;;
4873;SDS011;2451;49.970;9.068;2023-03-31T17:04:07;8.57;;;2.70;;
4873;SDS011;2451;49.970;9.068;2023-03-31T17:06:33;7.53;;;3.13;;
4873;SDS011;2451;49.970;9.068;2023-03-31T17:08:58;7.55;;;2.40;;
4873;SDS011;2451;49.970;9.068;2023-03-31T17:11:25;6.38;;;1.50;;
4873;SDS011;2451;49.970;9.068;2023-03-31T17:13:51;10.32;;;2.40;;
4873;SDS011;2451;49.970;9.068;2023-03-31T17:16:18;10.32;;;2.33;;
4873;SDS011;2451;49.970;9.068;2023-03-31T17:18:44;6.40;;;1.80;;
4873;SDS011;2451;49.970;9.068;2023-03-31T17:21:10;5.07;;;1.70;;
4873;SDS011;2451;49.970;9.068;2023-03-31T17:23:37;3.75;;;1.55;;
4873;SDS011;2451;49.970;9.068;2023-03-31T17:26:04;8.30;;;1.63;;
4873;SDS011;2451;49.970;9.068;2023-03-31T17:28:31;8.50;;;1.80;;
4873;SDS011;2451;49.970;9.068;2023-03-31T17:30:57;5.13;;;1.52;;
4873;SDS011;2451;49.970;9.068;2023-03-31T17:33:23;9.73;;;1.73;;
4873;SDS011;2451;49.970;9.068;2023-03-31T17:35:49;5.35;;;1.50;;
4873;SDS011;2451;49.970;9.068;2023-03-31T17:38:14;7.25;;;1.90;;
4873;SDS011;2451;49.970;9.068;2023-03-31T17:40:43;6.03;;;1.50;;
4873;SDS011;2451;49.970;9.068;2023-03-31T17:43:09;8.02;;;1.50;;
4873;SDS011;2451;49.970;9.068;2023-03-31T17:45:34;5.80;;;1.40;;
4873;SDS011;2451;49.970;9.068;2023-03-31T17:48:00;5.45;;;1.77;;
4873;SDS011;2451;49.970;9.068;2023-03-31T17:50:26;8.10;;;2.70;;
4873;SDS011;2451;49.970;9.068;2023-03-31T17:52:52;7.60;;;1.90;;
4873;SDS011;2451;49.970;9.068;2023-03-31T17:55:18;6.25;;;2.00;;
4873;SDS011;2451;49.970;9.068;2023-03-31T17:57:43;10.13;;;2.25;;
4873;SDS011;2451;49.970;9.068;2023-03-31T18:00:10;8.07;;;2.35;;
4873;SDS011;2451;49.970;9.068;2023-03-31T18:02:39;7.13;;;1.63;;
4873;SDS011;2451;49.970;9.068;2023-03-31T18:05:05;9.32;;;3.35;;
4873;SDS011;2451;49.970;9.068;2023-03-31T18:07:32;7.97;;;2.85;;
4873;SDS011;2451;49.970;9.068;2023-03-31T18:09:58;9.25;;;2.20;;
4873;SDS011;2451;49.970;9.068;2023-03-31T18:12:24;6.07;;;1.98;;
4873;SDS011;2451;49.970;9.068;2023-03-31T18:14:51;8.27;;;2.45;;
4873;SDS011;2451;49.970;9.068;2023-03-31T18:17:17;8.68;;;2.42;;
4873;SDS011;2451;49.970;9.068;2023-03-31T18:19:43;7.18;;;2.35;;